Time;durP1;ratioP1;P1;durP2;ratioP2;P2;SDS_P1;SDS_P2;PMS_P1;PMS_P2;Temp;Humidity;BMP_temperature;BMP_pressure;BME280_temperature;BME280_humidity;BME280_pressure;Samples;Min_cycle;Max_cycle;Signal;HPM_P1;HPM_P2
2024/04/02 00:01:55;;;;;;;0.30;0.30;;;7.40;99.90;;;;;;4959710;29;20482;-79
2024/04/02 00:04:21;;;;;;;0.40;0.30;;;7.40;99.90;;;;;;4959809;29;20206;-80
2024/04/02 00:06:48;;;;;;;0.40;0.40;;;7.40;99.90;;;;;;4959528;29;20450;-79
2024/04/02 00:09:14;;;;;;;0.30;0.30;;;7.40;99.90;;;;;;4959326;29;20712;-79
2024/04/02 00:11:42;;;;;;;0.40;0.40;;;7.30;99.90;;;;;;4959515;29;20928;-80
2024/04/02 00:14:08;;;;;;;0.37;0.37;;;7.30;99.90;;;;;;4959506;29;20442;-80
2024/04/02 00:16:34;;;;;;;0.40;0.40;;;7.30;99.90;;;;;;4959176;29;20936;-81
2024/04/02 00:19:00;;;;;;;0.40;0.30;;;7.30;99.90;;;;;;4959287;29;20222;-80
2024/04/02 00:21:27;;;;;;;0.30;0.30;;;7.30;99.90;;;;;;4958417;28;20496;-81
2024/04/02 00:23:52;;;;;;;0.40;0.40;;;7.40;99.90;;;;;;4958557;29;20214;-80
2024/04/02 00:26:20;;;;;;;0.30;0.30;;;7.40;99.90;;;;;;4958536;29;20994;-81
2024/04/02 00:28:50;;;;;;;0.40;0.40;;;7.40;99.90;;;;;;4958181;29;20226;-80
2024/04/02 00:31:16;;;;;;;0.30;0.30;;;7.30;99.90;;;;;;4958554;29;20497;-80
2024/04/02 00:33:42;;;;;;;0.30;0.30;;;7.30;99.90;;;;;;4958167;29;20450;-80
2024/04/02 00:36:09;;;;;;;0.67;0.40;;;7.30;99.90;;;;;;4957604;29;20446;-80
2024/04/02 00:38:35;;;;;;;0.40;0.30;;;7.40;99.90;;;;;;4957418;29;20214;-81
2024/04/02 00:41:02;;;;;;;0.53;0.37;;;7.30;99.90;;;;;;4958877;29;20452;-80
2024/04/02 00:43:28;;;;;;;0.40;0.40;;;7.30;99.90;;;;;;4957075;29;20211;-80
2024/04/02 00:45:56;;;;;;;0.47;0.47;;;7.30;99.90;;;;;;4956796;28;20812;-80
2024/04/02 00:48:23;;;;;;;0.30;0.30;;;7.20;99.90;;;;;;4957118;29;20235;-80
2024/04/02 00:50:50;;;;;;;0.43;0.43;;;7.20;99.90;;;;;;4957248;29;20451;-80
2024/04/02 00:53:19;;;;;;;0.30;0.30;;;7.20;99.90;;;;;;4964278;29;20450;-80
2024/04/02 00:55:46;;;;;;;0.40;0.33;;;7.10;99.90;;;;;;4967054;29;20454;-80
2024/04/02 00:58:12;;;;;;;0.60;0.40;;;7.10;99.90;;;;;;4966423;29;20517;-81
2024/04/02 01:00:40;;;;;;;0.40;0.30;;;7.10;99.90;;;;;;4965221;29;20470;-80
2024/04/02 01:03:08;;;;;;;1.20;0.50;;;7.10;99.90;;;;;;4958026;29;21022;-80
2024/04/02 01:05:37;;;;;;;0.40;0.40;;;7.20;99.90;;;;;;4957139;29;20450;-80
2024/04/02 01:08:04;;;;;;;0.87;0.40;;;7.10;99.90;;;;;;4956785;29;20462;-80
2024/04/02 01:10:32;;;;;;;0.47;0.40;;;7.10;99.90;;;;;;4957408;29;20446;-80
2024/04/02 01:12:58;;;;;;;0.40;0.30;;;7.00;99.90;;;;;;4956883;29;20430;-80
2024/04/02 01:15:25;;;;;;;0.30;0.30;;;7.00;99.90;;;;;;4956894;29;20478;-80
2024/04/02 01:17:51;;;;;;;0.50;0.40;;;7.00;99.90;;;;;;4957108;29;20442;-80
2024/04/02 01:20:19;;;;;;;0.37;0.37;;;7.00;99.90;;;;;;4959271;29;20513;-80
2024/04/02 01:22:45;;;;;;;0.40;0.40;;;7.10;99.90;;;;;;4958429;29;20233;-80
2024/04/02 01:25:12;;;;;;;0.43;0.37;;;7.10;99.90;;;;;;4956775;29;20450;-81
2024/04/02 01:27:39;;;;;;;0.30;0.30;;;7.10;99.90;;;;;;4956858;29;20697;-80
2024/04/02 01:30:07;;;;;;;0.30;0.30;;;7.10;99.90;;;;;;4956353;29;20466;-80
2024/04/02 01:32:33;;;;;;;0.40;0.40;;;7.00;99.90;;;;;;4956097;29;20442;-80
2024/04/02 01:34:59;;;;;;;0.30;0.30;;;7.00;99.90;;;;;;4956018;28;20456;-80
2024/04/02 01:37:25;;;;;;;0.40;0.33;;;7.00;99.90;;;;;;4955890;29;20205;-80
2024/04/02 01:39:52;;;;;;;0.30;0.30;;;7.00;99.90;;;;;;4955788;29;20470;-80
2024/04/02 01:42:17;;;;;;;0.50;0.50;;;7.00;99.90;;;;;;4956083;29;20712;-80
2024/04/02 01:44:46;;;;;;;0.30;0.30;;;7.00;99.90;;;;;;4955893;29;20530;-80
2024/04/02 01:47:11;;;;;;;0.67;0.40;;;7.00;99.90;;;;;;4955608;28;20230;-80
2024/04/02 01:49:38;;;;;;;0.50;0.40;;;7.00;99.90;;;;;;4955326;29;20565;-80
2024/04/02 01:52:05;;;;;;;0.50;0.50;;;7.00;99.90;;;;;;4955605;29;20203;-80
2024/04/02 01:54:31;;;;;;;2.00;0.40;;;7.00;99.90;;;;;;4955905;29;20458;-79
2024/04/02 01:56:57;;;;;;;0.30;0.30;;;7.00;99.90;;;;;;4955561;29;20450;-80
2024/04/02 01:59:24;;;;;;;0.40;0.40;;;7.00;99.90;;;;;;4955308;29;20854;-80
2024/04/02 02:01:52;;;;;;;0.60;0.40;;;7.00;99.90;;;;;;4955225;29;20238;-80
2024/04/02 02:04:18;;;;;;;0.40;0.30;;;7.10;99.90;;;;;;4955596;29;20512;-80
2024/04/02 02:06:44;;;;;;;0.40;0.40;;;7.10;99.90;;;;;;4955195;29;20445;-80
2024/04/02 02:09:11;;;;;;;0.43;0.43;;;7.20;99.90;;;;;;4955806;29;20553;-80
2024/04/02 02:11:37;;;;;;;0.30;0.30;;;7.20;99.90;;;;;;4955691;29;20446;-79
2024/04/02 02:14:04;;;;;;;0.40;0.40;;;7.20;99.90;;;;;;4955587;29;20446;-79
2024/04/02 02:16:29;;;;;;;0.47;0.40;;;7.30;99.90;;;;;;4955912;29;20210;-80
2024/04/02 02:18:58;;;;;;;0.40;0.40;;;7.20;99.90;;;;;;4955894;29;21047;-80
2024/04/02 02:21:23;;;;;;;0.40;0.30;;;7.30;99.90;;;;;;4956057;29;20202;-80
2024/04/02 02:23:51;;;;;;;0.40;0.30;;;7.30;99.90;;;;;;4955478;29;20464;-80
2024/04/02 02:26:17;;;;;;;1.27;0.40;;;7.40;99.90;;;;;;4955842;29;20573;-80
2024/04/02 02:28:44;;;;;;;1.13;0.40;;;7.40;99.90;;;;;;4955704;29;20457;-80
2024/04/02 02:31:10;;;;;;;0.40;0.40;;;7.40;99.90;;;;;;4956084;29;20541;-80
2024/04/02 02:33:37;;;;;;;0.30;0.30;;;7.40;99.90;;;;;;4956226;29;20522;-80
2024/04/02 02:36:05;;;;;;;0.40;0.30;;;7.40;99.90;;;;;;4956565;29;20211;-81
2024/04/02 02:38:31;;;;;;;0.30;0.30;;;7.50;99.90;;;;;;4956727;29;20470;-80
2024/04/02 02:41:00;;;;;;;0.37;0.30;;;7.50;99.90;;;;;;4956985;29;20450;-81
2024/04/02 02:43:27;;;;;;;0.60;0.40;;;7.50;99.90;;;;;;4956896;29;20493;-80
2024/04/02 02:45:53;;;;;;;0.30;0.30;;;7.60;99.90;;;;;;4958375;28;20450;-80
2024/04/02 02:48:20;;;;;;;8.03;0.40;;;7.60;99.90;;;;;;4960341;29;20441;-80
2024/04/02 02:50:46;;;;;;;0.30;0.30;;;7.60;99.90;;;;;;4960563;29;20684;-80
2024/04/02 02:53:15;;;;;;;0.70;0.40;;;7.60;99.90;;;;;;4960823;29;20442;-81
2024/04/02 02:55:40;;;;;;;0.60;0.40;;;7.60;99.90;;;;;;4959943;29;20205;-80
2024/04/02 02:58:07;;;;;;;0.50;0.33;;;7.70;99.90;;;;;;4960457;29;20453;-80
2024/04/02 03:00:38;;;;;;;0.40;0.30;;;7.60;99.90;;;;;;4960067;29;20218;-80
2024/04/02 03:03:05;;;;;;;0.40;0.40;;;7.60;99.90;;;;;;4959956;29;20469;-80
2024/04/02 03:05:31;;;;;;;0.40;0.30;;;7.50;99.90;;;;;;4959599;29;20457;-80
2024/04/02 03:07:57;;;;;;;0.30;0.27;;;7.40;99.90;;;;;;4960311;29;20449;-80
2024/04/02 03:10:25;;;;;;;0.30;0.30;;;7.40;99.90;;;;;;4959334;29;20219;-80
2024/04/02 03:12:51;;;;;;;0.33;0.33;;;7.40;99.90;;;;;;4958974;29;20458;-80
2024/04/02 03:15:17;;;;;;;0.40;0.40;;;7.30;99.90;;;;;;4959317;29;20450;-80
2024/04/02 03:17:44;;;;;;;0.30;0.30;;;7.30;99.90;;;;;;4958907;29;20453;-80
2024/04/02 03:20:11;;;;;;;0.30;0.30;;;7.20;99.90;;;;;;4959320;29;20223;-80
2024/04/02 03:22:37;;;;;;;0.70;0.40;;;7.20;99.90;;;;;;4959066;29;20486;-80
2024/04/02 03:25:04;;;;;;;0.50;0.50;;;7.20;99.90;;;;;;4959261;29;20438;-80
2024/04/02 03:27:33;;;;;;;0.40;0.40;;;7.20;99.90;;;;;;4958769;29;20446;-80
2024/04/02 03:29:58;;;;;;;0.40;0.30;;;7.20;99.90;;;;;;4958423;29;20481;-80
2024/04/02 03:32:25;;;;;;;0.40;0.40;;;7.20;99.90;;;;;;4958345;29;20435;-80
2024/04/02 03:34:51;;;;;;;0.40;0.40;;;7.30;99.90;;;;;;4958259;29;20207;-80
2024/04/02 03:37:18;;;;;;;0.40;0.30;;;7.30;99.90;;;;;;4958702;29;20452;-80
2024/04/02 03:39:44;;;;;;;1.00;0.57;;;7.20;99.90;;;;;;4960023;29;20222;-80
2024/04/02 03:42:11;;;;;;;0.60;0.40;;;7.20;99.90;;;;;;4968885;29;20478;-80
2024/04/02 03:44:39;;;;;;;0.60;0.40;;;7.20;99.90;;;;;;4971203;29;20455;-81
2024/04/02 03:47:07;;;;;;;0.30;0.30;;;7.20;99.90;;;;;;4969074;29;20482;-80
2024/04/02 03:49:32;;;;;;;0.40;0.40;;;7.20;99.90;;;;;;4965439;29;20857;-80
2024/04/02 03:51:59;;;;;;;0.40;0.30;;;7.20;99.90;;;;;;4961488;29;20441;-80
2024/04/02 03:54:25;;;;;;;0.40;0.30;;;7.20;99.90;;;;;;4959857;29;20198;-80
2024/04/02 03:56:51;;;;;;;0.60;0.40;;;7.10;99.90;;;;;;4959604;28;20457;-80
2024/04/02 03:59:17;;;;;;;0.40;0.30;;;7.20;99.90;;;;;;4960337;29;20249;-80
2024/04/02 04:01:45;;;;;;;1.03;0.40;;;7.20;99.90;;;;;;4957901;29;20928;-79
2024/04/02 04:04:12;;;;;;;0.40;0.40;;;7.20;99.90;;;;;;4957863;29;20199;-80
2024/04/02 04:06:38;;;;;;;0.30;0.30;;;7.10;99.90;;;;;;4957824;29;20782;-80
2024/04/02 04:09:07;;;;;;;0.60;0.50;;;7.10;99.90;;;;;;4957538;29;20474;-80
2024/04/02 04:11:33;;;;;;;0.30;0.30;;;7.10;99.90;;;;;;4957860;29;20489;-80
2024/04/02 04:14:01;;;;;;;0.60;0.60;;;7.10;99.90;;;;;;4959452;29;20820;-80
2024/04/02 04:16:28;;;;;;;0.30;0.30;;;7.00;99.90;;;;;;4959257;29;20454;-80
2024/04/02 04:18:55;;;;;;;0.30;0.30;;;7.00;99.90;;;;;;4957576;29;20854;-80
2024/04/02 04:21:22;;;;;;;0.30;0.30;;;7.00;99.90;;;;;;4957594;29;20462;-80
2024/04/02 04:23:48;;;;;;;0.70;0.60;;;7.00;99.90;;;;;;4957184;29;20490;-79
2024/04/02 04:26:14;;;;;;;0.30;0.30;;;6.90;99.90;;;;;;4956894;29;20450;-79
2024/04/02 04:28:40;;;;;;;0.40;0.40;;;6.90;99.90;;;;;;4957014;29;20233;-80
2024/04/02 04:31:09;;;;;;;0.40;0.30;;;6.90;99.90;;;;;;4957256;29;20450;-80
2024/04/02 04:33:35;;;;;;;0.40;0.30;;;6.90;99.90;;;;;;4957018;29;20199;-79
2024/04/02 04:36:03;;;;;;;0.40;0.30;;;6.90;99.90;;;;;;4957037;29;20456;-79
2024/04/02 04:38:29;;;;;;;0.30;0.30;;;6.90;99.90;;;;;;4957219;29;20223;-80
2024/04/02 04:40:56;;;;;;;0.40;0.30;;;6.90;99.90;;;;;;4956596;29;20461;-80
2024/04/02 04:43:22;;;;;;;0.30;0.30;;;6.90;99.90;;;;;;4956735;29;20305;-80
2024/04/02 04:45:52;;;;;;;0.30;0.30;;;7.00;99.90;;;;;;4956544;28;20544;-80
2024/04/02 04:48:19;;;;;;;0.87;0.40;;;7.00;99.90;;;;;;4956733;29;20645;-80
2024/04/02 04:50:55;;;;;;;0.30;0.30;;;7.10;99.90;;;;;;4957015;29;20505;-80
2024/04/02 04:53:23;;;;;;;0.60;0.40;;;7.10;99.90;;;;;;4957239;29;20833;-80
2024/04/02 04:55:50;;;;;;;0.40;0.40;;;7.00;99.90;;;;;;4956908;29;20971;-80
2024/04/02 04:58:16;;;;;;;0.40;0.30;;;7.00;99.90;;;;;;4956736;29;20450;-80
2024/04/02 05:00:44;;;;;;;0.40;0.30;;;6.90;99.90;;;;;;4956856;29;20451;-80
2024/04/02 05:03:10;;;;;;;0.40;0.30;;;6.90;99.90;;;;;;4957012;29;20474;-80
2024/04/02 05:05:37;;;;;;;0.30;0.30;;;6.80;99.90;;;;;;4956934;29;20474;-80
2024/04/02 05:08:23;;;;;;;0.40;0.30;;;6.80;99.90;;;;;;4956437;28;20210;-80
2024/04/02 05:10:50;;;;;;;1.60;0.43;;;6.80;99.90;;;;;;4958298;29;20450;-80
2024/04/02 05:13:17;;;;;;;0.40;0.40;;;6.80;99.90;;;;;;4956555;29;20446;-80
2024/04/02 05:15:45;;;;;;;0.30;0.30;;;6.80;99.90;;;;;;4956247;29;20808;-80
2024/04/02 05:18:11;;;;;;;0.37;0.33;;;6.80;99.90;;;;;;4956320;29;20450;-80
2024/04/02 05:20:38;;;;;;;0.47;0.40;;;6.80;99.90;;;;;;4959470;29;20438;-80
2024/04/02 05:23:04;;;;;;;0.33;0.30;;;6.80;99.90;;;;;;4961730;29;20490;-80
2024/04/02 05:25:33;;;;;;;0.30;0.30;;;6.80;99.90;;;;;;4959227;29;20454;-80
2024/04/02 05:27:59;;;;;;;0.30;0.30;;;6.70;99.90;;;;;;4959145;29;20445;-80
2024/04/02 05:30:26;;;;;;;0.40;0.40;;;6.70;99.90;;;;;;4958787;29;20470;-80
2024/04/02 05:32:52;;;;;;;0.40;0.30;;;6.70;99.90;;;;;;4958655;29;20616;-79
2024/04/02 05:35:20;;;;;;;0.40;0.40;;;6.70;99.90;;;;;;4956558;29;20529;-80
2024/04/02 05:37:46;;;;;;;0.40;0.40;;;6.60;99.90;;;;;;4956026;29;20813;-80
2024/04/02 05:40:12;;;;;;;0.30;0.30;;;6.60;99.90;;;;;;4955738;29;20454;-80
2024/04/02 05:42:42;;;;;;;0.40;0.40;;;6.70;99.90;;;;;;4955907;29;20253;-80
2024/04/02 05:45:09;;;;;;;0.50;0.50;;;6.70;99.90;;;;;;4955968;29;20473;-80
2024/04/02 05:47:34;;;;;;;0.40;0.33;;;6.70;99.90;;;;;;4955490;29;20844;-80
2024/04/02 05:50:01;;;;;;;0.40;0.30;;;6.70;99.90;;;;;;4956016;29;20476;-80
2024/04/02 05:52:28;;;;;;;0.97;0.50;;;6.70;99.90;;;;;;4955851;29;20274;-80
2024/04/02 05:54:54;;;;;;;0.60;0.50;;;6.80;99.90;;;;;;4955741;29;20960;-80
2024/04/02 05:57:20;;;;;;;0.50;0.40;;;6.80;99.90;;;;;;4955792;29;20212;-80
2024/04/02 05:59:50;;;;;;;0.50;0.40;;;6.80;99.90;;;;;;4955733;29;20473;-79
2024/04/02 06:02:16;;;;;;;0.30;0.30;;;6.90;99.90;;;;;;4955528;29;20573;-80
2024/04/02 06:04:42;;;;;;;0.60;0.40;;;6.90;99.90;;;;;;4955655;29;20460;-80
2024/04/02 06:07:08;;;;;;;0.87;0.30;;;7.10;99.90;;;;;;4955725;29;20419;-79
2024/04/02 06:09:35;;;;;;;1.80;0.53;;;7.20;99.90;;;;;;4955889;29;20805;-80
2024/04/02 06:12:01;;;;;;;0.80;0.40;;;7.40;99.90;;;;;;4955982;29;20217;-80
2024/04/02 06:14:27;;;;;;;0.40;0.40;;;7.70;99.90;;;;;;4956793;29;20525;-80
2024/04/02 06:16:55;;;;;;;0.30;0.30;;;7.80;99.90;;;;;;4957362;29;20195;-80
2024/04/02 06:19:22;;;;;;;0.57;0.37;;;7.90;99.90;;;;;;4956815;28;20465;-79
2024/04/02 06:21:47;;;;;;;0.43;0.30;;;8.10;99.90;;;;;;4960407;29;20444;-80
2024/04/02 06:24:14;;;;;;;0.30;0.20;;;8.10;99.90;;;;;;4961245;29;20992;-80
2024/04/02 06:26:40;;;;;;;0.30;0.30;;;8.10;99.90;;;;;;4961539;29;20202;-81
2024/04/02 06:29:07;;;;;;;0.40;0.30;;;8.10;99.90;;;;;;4960831;29;20914;-81
2024/04/02 06:31:33;;;;;;;0.30;0.30;;;8.10;99.90;;;;;;4961010;29;20253;-80
2024/04/02 06:34:01;;;;;;;0.30;0.30;;;8.20;99.90;;;;;;4961201;29;20446;-81
2024/04/02 06:36:29;;;;;;;0.30;0.30;;;8.10;99.90;;;;;;4968440;29;20206;-80
2024/04/02 06:38:56;;;;;;;0.40;0.30;;;8.10;99.90;;;;;;4967575;29;20913;-81
2024/04/02 06:41:21;;;;;;;0.30;0.30;;;8.00;99.90;;;;;;4968340;29;20454;-80
2024/04/02 06:43:48;;;;;;;0.40;0.30;;;8.10;99.90;;;;;;4965495;29;20573;-80
2024/04/02 06:46:14;;;;;;;0.30;0.30;;;8.10;99.90;;;;;;4960651;29;20249;-80
2024/04/02 06:48:41;;;;;;;0.40;0.30;;;8.20;99.90;;;;;;4961068;29;20470;-80
2024/04/02 06:51:08;;;;;;;0.30;0.30;;;8.40;99.90;;;;;;4961028;29;20206;-80
2024/04/02 06:53:35;;;;;;;0.40;0.30;;;8.50;99.90;;;;;;4960716;29;20493;-80
2024/04/02 06:56:01;;;;;;;0.30;0.30;;;8.50;99.90;;;;;;4960571;29;20461;-80
2024/04/02 06:58:29;;;;;;;0.47;0.40;;;8.60;99.90;;;;;;4960457;29;20991;-80
2024/04/02 07:00:55;;;;;;;0.37;0.30;;;8.60;99.90;;;;;;4961279;29;20210;-80
2024/04/02 07:03:23;;;;;;;0.40;0.30;;;8.60;99.90;;;;;;4960997;29;21019;-80
2024/04/02 07:05:50;;;;;;;1.00;0.30;;;8.70;99.90;;;;;;4960712;29;20199;-80
2024/04/02 07:08:21;;;;;;;0.30;0.30;;;8.70;99.90;;;;;;4960600;29;20435;-80
2024/04/02 07:10:58;;;;;;;1.03;0.30;;;8.70;99.90;;;;;;4961161;29;20799;-80
2024/04/02 07:13:25;;;;;;;0.30;0.30;;;8.80;99.90;;;;;;4960620;29;20458;-80
2024/04/02 07:15:51;;;;;;;0.30;0.30;;;8.90;99.90;;;;;;4960619;29;20450;-84
2024/04/02 07:18:18;;;;;;;0.40;0.30;;;9.00;99.90;;;;;;4960212;29;20446;-80
2024/04/02 07:20:44;;;;;;;0.30;0.30;;;9.20;99.90;;;;;;4960102;29;20445;-81
2024/04/02 07:23:10;;;;;;;0.30;0.30;;;9.50;99.90;;;;;;4959871;29;20490;-80
2024/04/02 07:25:37;;;;;;;0.30;0.30;;;9.50;99.90;;;;;;4960635;29;20207;-80
2024/04/02 07:28:05;;;;;;;0.30;0.30;;;9.50;99.90;;;;;;4960390;29;20805;-81
2024/04/02 07:30:30;;;;;;;0.30;0.30;;;9.20;99.90;;;;;;4960231;29;20446;-80
2024/04/02 07:32:57;;;;;;;0.50;0.30;;;9.30;99.90;;;;;;4961026;28;20442;-80
2024/04/02 07:35:23;;;;;;;0.30;0.30;;;9.50;99.90;;;;;;4960369;29;20222;-80
2024/04/02 07:37:49;;;;;;;3.23;0.50;;;9.60;99.90;;;;;;4959886;29;20545;-80
2024/04/02 07:40:15;;;;;;;0.50;0.30;;;9.50;99.90;;;;;;4959856;29;20712;-81
2024/04/02 07:42:43;;;;;;;2.77;0.40;;;9.50;99.90;;;;;;4959980;29;20486;-80
2024/04/02 07:45:09;;;;;;;0.40;0.30;;;9.70;99.90;;;;;;4959900;29;20672;-80
2024/04/02 07:47:36;;;;;;;0.80;0.40;;;9.70;99.90;;;;;;4959470;28;20496;-80
2024/04/02 07:50:03;;;;;;;1.13;0.40;;;9.90;99.90;;;;;;4959853;29;20227;-81
2024/04/02 07:52:30;;;;;;;0.40;0.30;;;10.30;99.90;;;;;;4959253;29;20568;-81
2024/04/02 07:54:56;;;;;;;0.30;0.30;;;10.70;99.90;;;;;;4959505;29;20477;-81
2024/04/02 07:57:22;;;;;;;0.40;0.37;;;11.10;99.90;;;;;;4959258;29;20442;-80
2024/04/02 07:59:49;;;;;;;0.40;0.30;;;11.50;99.90;;;;;;4959030;29;20223;-79
2024/04/02 08:02:16;;;;;;;1.03;0.40;;;11.70;99.90;;;;;;4959175;29;20458;-79
2024/04/02 08:04:42;;;;;;;0.40;0.30;;;11.80;99.90;;;;;;4959239;29;21007;-80
2024/04/02 08:07:10;;;;;;;0.60;0.40;;;11.90;99.90;;;;;;4959833;29;20458;-80
2024/04/02 08:09:36;;;;;;;0.50;0.30;;;12.20;99.90;;;;;;4959196;29;20230;-80
2024/04/02 08:12:03;;;;;;;0.30;0.30;;;12.30;99.90;;;;;;4959990;29;20450;-80
2024/04/02 08:14:31;;;;;;;1.03;0.50;;;12.40;99.90;;;;;;4958927;29;20203;-80
2024/04/02 08:17:00;;;;;;;1.07;0.40;;;12.20;99.90;;;;;;4959147;29;20489;-80
2024/04/02 08:19:26;;;;;;;0.50;0.50;;;12.20;99.90;;;;;;4958796;29;20466;-80
2024/04/02 08:21:53;;;;;;;0.30;0.30;;;12.30;99.90;;;;;;4958682;29;20457;-80
2024/04/02 08:24:19;;;;;;;0.50;0.30;;;12.30;99.90;;;;;;4958883;29;20587;-80
2024/04/02 08:26:45;;;;;;;1.00;0.40;;;12.40;99.90;;;;;;4958109;29;20458;-80
2024/04/02 08:29:11;;;;;;;0.30;0.30;;;12.10;99.90;;;;;;4958380;29;20784;-80
2024/04/02 08:31:38;;;;;;;0.30;0.30;;;11.80;99.90;;;;;;4958567;29;20446;-79
2024/04/02 08:34:05;;;;;;;0.50;0.40;;;11.40;99.90;;;;;;4958916;29;20439;-79
2024/04/02 08:36:32;;;;;;;0.30;0.30;;;11.20;99.90;;;;;;4958500;29;20438;-80
2024/04/02 08:38:58;;;;;;;1.67;1.20;;;11.20;99.90;;;;;;4958790;29;20473;-79
2024/04/02 08:41:27;;;;;;;1.70;0.60;;;11.20;99.90;;;;;;4958711;29;20450;-80
2024/04/02 08:43:56;;;;;;;1.57;0.40;;;11.10;99.90;;;;;;4957939;28;20723;-79
2024/04/02 08:46:24;;;;;;;1.00;0.40;;;11.10;99.90;;;;;;4958461;28;20855;-80
2024/04/02 08:48:52;;;;;;;1.07;0.40;;;11.00;99.90;;;;;;4957899;29;20474;-80
2024/04/02 08:51:20;;;;;;;0.50;0.37;;;10.90;99.90;;;;;;4958352;29;20555;-80
2024/04/02 08:53:47;;;;;;;1.90;0.40;;;10.90;99.90;;;;;;4957844;29;20447;-80
2024/04/02 08:56:15;;;;;;;2.30;0.40;;;11.00;99.90;;;;;;4958328;29;20493;-80
2024/04/02 08:58:41;;;;;;;1.73;0.40;;;11.20;99.90;;;;;;4958422;29;20476;-80
2024/04/02 09:01:09;;;;;;;0.37;0.33;;;11.20;99.90;;;;;;4958327;29;20452;-80
2024/04/02 09:03:35;;;;;;;0.30;0.30;;;11.40;99.90;;;;;;4957852;29;20486;-80
2024/04/02 09:06:03;;;;;;;0.43;0.40;;;11.90;99.90;;;;;;4958000;29;20445;-79
2024/04/02 09:08:41;;;;;;;0.50;0.43;;;12.50;99.90;;;;;;4957748;29;20479;-80
2024/04/02 09:11:08;;;;;;;1.07;0.30;;;13.40;99.90;;;;;;4958682;29;20454;-80
2024/04/02 09:13:34;;;;;;;0.50;0.43;;;13.80;99.90;;;;;;4957936;29;20438;-80
2024/04/02 09:16:01;;;;;;;2.63;0.40;;;14.00;99.90;;;;;;4958146;29;20456;-82
2024/04/02 09:18:30;;;;;;;0.30;0.27;;;14.30;99.90;;;;;;4957721;29;20219;-81
2024/04/02 09:20:56;;;;;;;2.87;0.50;;;14.50;99.90;;;;;;4957770;29;20478;-81
2024/04/02 09:23:23;;;;;;;1.17;1.00;;;14.70;99.90;;;;;;4957998;29;20525;-81
2024/04/02 09:25:50;;;;;;;0.40;0.30;;;14.60;99.90;;;;;;4957678;29;20206;-81
2024/04/02 09:28:17;;;;;;;0.60;0.40;;;14.80;99.90;;;;;;4957654;29;20490;-81
2024/04/02 09:30:43;;;;;;;0.30;0.30;;;15.20;99.90;;;;;;4958121;29;20446;-81
2024/04/02 09:33:11;;;;;;;0.37;0.37;;;15.60;99.90;;;;;;4957496;29;20810;-81
2024/04/02 09:36:05;;;;;;;0.60;0.40;;;16.70;99.90;;;;;;4957804;29;20215;-81
2024/04/02 09:38:34;;;;;;;0.40;0.30;;;18.00;99.90;;;;;;4957586;29;20485;-81
2024/04/02 09:41:02;;;;;;;1.17;0.40;;;18.90;99.90;;;;;;4957317;29;20482;-81
2024/04/02 09:43:31;;;;;;;0.50;0.30;;;19.50;99.90;;;;;;4957309;29;20490;-81
2024/04/02 09:45:59;;;;;;;0.50;0.40;;;19.90;99.90;;;;;;4957504;28;20875;-81
2024/04/02 09:48:30;;;;;;;0.53;0.43;;;20.00;99.90;;;;;;4957791;29;20450;-81
2024/04/02 09:50:57;;;;;;;0.40;0.40;;;20.30;99.90;;;;;;4957386;29;20435;-81
2024/04/02 09:53:25;;;;;;;0.80;0.50;;;21.20;99.90;;;;;;4957143;29;20473;-81
2024/04/02 09:55:52;;;;;;;1.13;0.43;;;21.60;98.30;;;;;;4956366;28;20438;-81
2024/04/02 09:58:21;;;;;;;0.60;0.37;;;22.80;98.20;;;;;;4957519;29;20450;-82
2024/04/02 10:00:52;;;;;;;0.40;0.40;;;23.30;94.90;;;;;;4957374;29;20216;-81
2024/04/02 10:03:21;;;;;;;0.40;0.40;;;23.30;92.30;;;;;;4959124;29;20214;-81
2024/04/02 10:05:47;;;;;;;0.40;0.40;;;22.60;91.30;;;;;;4963089;29;20208;-81
2024/04/02 10:08:13;;;;;;;0.30;0.30;;;22.60;91.40;;;;;;4961691;29;20285;-81
2024/04/02 10:10:40;;;;;;;0.50;0.40;;;22.40;90.40;;;;;;4958577;29;20208;-82
2024/04/02 10:13:07;;;;;;;0.67;0.40;;;22.00;88.20;;;;;;4957766;29;20261;-81
2024/04/02 10:15:35;;;;;;;0.63;0.40;;;21.90;88.10;;;;;;4958034;29;20206;-81
2024/04/02 10:18:02;;;;;;;0.70;0.40;;;21.60;85.00;;;;;;4956871;29;21026;-81
2024/04/02 10:20:30;;;;;;;0.40;0.30;;;21.30;87.50;;;;;;4957817;29;20426;-81
2024/04/02 10:22:58;;;;;;;0.47;0.47;;;20.60;84.10;;;;;;4957506;29;20480;-81
2024/04/02 10:25:25;;;;;;;0.40;0.30;;;19.70;88.80;;;;;;4958088;29;20460;-80
2024/04/02 10:27:57;;;;;;;1.20;0.60;;;18.20;93.00;;;;;;4958832;29;20450;-82
2024/04/02 10:30:25;;;;;;;0.87;0.40;;;16.30;95.00;;;;;;4958128;29;20470;-81
2024/04/02 10:32:54;;;;;;;0.40;0.40;;;15.20;99.90;;;;;;4959786;29;20553;-81
2024/04/02 10:35:21;;;;;;;2.30;0.40;;;14.70;99.90;;;;;;4958683;29;20810;-81
2024/04/02 10:37:49;;;;;;;0.50;0.43;;;15.30;99.90;;;;;;4958356;29;20457;-81
2024/04/02 10:40:16;;;;;;;0.40;0.37;;;15.80;99.90;;;;;;4957469;29;20477;-81
2024/04/02 10:42:43;;;;;;;0.70;0.47;;;16.70;99.90;;;;;;4957979;29;20518;-81
2024/04/02 10:45:10;;;;;;;0.40;0.33;;;17.60;99.90;;;;;;4957948;29;20489;-82
2024/04/02 10:47:36;;;;;;;0.40;0.30;;;18.50;99.90;;;;;;4957390;29;20478;-82
2024/04/02 10:50:05;;;;;;;1.10;0.40;;;19.20;99.90;;;;;;4958322;29;20478;-82
2024/04/02 10:52:36;;;;;;;0.30;0.30;;;20.30;99.90;;;;;;4958075;29;20442;-82
2024/04/02 10:55:03;;;;;;;1.70;0.40;;;21.30;99.90;;;;;;4958293;29;20923;-82
2024/04/02 10:57:31;;;;;;;1.27;0.30;;;21.10;99.90;;;;;;4958426;29;20461;-82
2024/04/02 10:59:59;;;;;;;0.40;0.30;;;21.00;99.40;;;;;;4958178;29;20462;-82
2024/04/02 11:02:27;;;;;;;0.70;0.30;;;22.10;99.90;;;;;;4957985;29;20514;-82
2024/04/02 11:04:54;;;;;;;1.07;0.40;;;22.50;98.00;;;;;;4958409;29;20496;-82
2024/04/02 11:07:24;;;;;;;0.40;0.30;;;22.20;94.50;;;;;;4960103;28;20441;-81
2024/04/02 11:09:50;;;;;;;10.50;0.40;;;21.50;94.70;;;;;;4962281;29;20477;-82
2024/04/02 11:12:16;;;;;;;1.33;0.50;;;20.60;94.80;;;;;;4962151;29;20438;-82
2024/04/02 11:14:42;;;;;;;0.50;0.40;;;19.20;95.40;;;;;;4962117;29;20442;-82
2024/04/02 11:17:09;;;;;;;1.97;0.63;;;18.10;97.80;;;;;;4972064;28;20476;-82
2024/04/02 11:19:36;;;;;;;0.40;0.33;;;17.30;99.90;;;;;;4981489;28;20238;-82
2024/04/02 11:25:07;;;;;;;0.30;0.30;;;15.70;99.90;;;;;;4979899;28;20515;-82
2024/04/02 11:27:34;;;;;;;0.80;0.40;;;15.30;99.90;;;;;;4980130;28;20430;-81
2024/04/02 11:30:01;;;;;;;0.40;0.30;;;14.80;99.90;;;;;;4979006;28;20457;-82
2024/04/02 11:32:27;;;;;;;1.30;0.47;;;14.70;99.90;;;;;;4979718;28;20810;-81
2024/04/02 11:35:02;;;;;;;0.40;0.30;;;14.40;99.90;;;;;;4979773;28;20445;-81
2024/04/02 11:37:29;;;;;;;0.40;0.30;;;14.10;99.90;;;;;;4980630;28;20238;-80
2024/04/02 11:39:58;;;;;;;0.40;0.30;;;13.60;99.90;;;;;;4982990;28;20560;-80
2024/04/02 11:42:24;;;;;;;0.30;0.30;;;13.10;99.90;;;;;;4983293;28;20449;-80
2024/04/02 11:44:54;;;;;;;0.40;0.40;;;12.80;99.90;;;;;;4982771;28;20565;-81
2024/04/02 11:47:20;;;;;;;1.43;0.40;;;12.50;99.90;;;;;;4981316;28;20488;-81
2024/04/02 11:49:47;;;;;;;0.40;0.30;;;12.40;99.90;;;;;;4981815;28;20560;-81
2024/04/02 11:52:13;;;;;;;1.27;0.40;;;12.30;99.90;;;;;;4980631;28;20447;-81
2024/04/02 11:54:40;;;;;;;0.40;0.30;;;12.10;99.90;;;;;;4981212;28;20445;-81
2024/04/02 12:00:07;;;;;;;0.80;0.50;;;12.10;99.90;;;;;;4979582;28;21034;-81
2024/04/02 12:02:34;;;;;;;0.40;0.40;;;11.90;99.90;;;;;;4980068;28;20591;-81
2024/04/02 12:05:01;;;;;;;5.80;0.70;;;12.00;99.90;;;;;;4979581;28;20496;-81
2024/04/02 12:07:28;;;;;;;0.73;0.37;;;12.00;99.90;;;;;;4979127;28;20449;-81
2024/04/02 12:09:56;;;;;;;0.40;0.30;;;12.10;99.90;;;;;;4979300;28;20843;-81
2024/04/02 12:12:23;;;;;;;0.40;0.33;;;12.10;99.90;;;;;;4979024;28;20446;-81
2024/04/02 12:14:50;;;;;;;0.40;0.30;;;12.10;99.90;;;;;;4978816;28;20442;-81
2024/04/02 12:17:16;;;;;;;0.40;0.40;;;12.10;99.90;;;;;;4978605;28;20449;-82
2024/04/02 12:19:43;;;;;;;0.40;0.30;;;12.10;99.90;;;;;;4978229;28;20465;-81
2024/04/02 12:22:11;;;;;;;1.00;0.50;;;12.10;99.90;;;;;;4978133;28;20249;-81
2024/04/02 12:24:38;;;;;;;0.40;0.33;;;12.20;99.90;;;;;;4978422;28;20485;-82
2024/04/02 12:27:05;;;;;;;0.40;0.30;;;12.40;99.90;;;;;;4979467;28;20504;-83
2024/04/02 12:29:32;;;;;;;0.30;0.30;;;12.30;99.90;;;;;;4979966;28;20463;-80
2024/04/02 12:31:59;;;;;;;1.23;0.37;;;12.20;99.90;;;;;;4979403;28;20876;-79
2024/04/02 12:34:26;;;;;;;0.30;0.30;;;11.90;99.90;;;;;;4979495;28;20433;-79
2024/04/02 12:36:53;;;;;;;0.40;0.30;;;11.80;99.90;;;;;;4978857;28;20491;-81
2024/04/02 12:39:19;;;;;;;0.40;0.30;;;11.70;99.90;;;;;;4977803;28;20468;-81
2024/04/02 12:41:45;;;;;;;0.40;0.40;;;11.70;99.90;;;;;;4978272;28;20436;-82
2024/04/02 12:44:11;;;;;;;1.90;0.50;;;11.60;99.90;;;;;;4978267;28;20230;-81
2024/04/02 12:46:39;;;;;;;1.70;0.50;;;11.60;99.90;;;;;;4978338;28;20495;-82
2024/04/02 12:49:07;;;;;;;0.40;0.37;;;11.70;99.90;;;;;;4978099;28;20242;-81
2024/04/02 12:51:34;;;;;;;0.30;0.30;;;11.80;99.90;;;;;;4977457;28;20445;-82
2024/04/02 12:54:01;;;;;;;0.37;0.33;;;11.90;99.90;;;;;;4977895;28;20457;-82
2024/04/02 12:56:28;;;;;;;0.30;0.30;;;12.00;99.90;;;;;;4977737;28;20461;-81
2024/04/02 12:58:55;;;;;;;0.30;0.30;;;12.10;99.90;;;;;;4978051;28;20469;-81